Lakeside, California
Current Conditions -  °F | °C
As of 12:35 AM on Sunday 26 Oct 2014 (Local Time) from KSEE Reporting Station
Broken Clouds Broken Clouds  
Wind Chill: 17°   Ceiling: 1400
Heat Index: 17°   Visibility: 10mi
Dew Point: 17°   Wind: 0mph
Humidity: 100%   Direction: NA
Pressure: 30.04"   Gusts: NA
Location:  32.85°N, 116.9°W
Report Text: KSEE 260735Z AUTO 00000KT 10SM BKN014 17/17 A3004 RMK AO2
Loading
Personal Weather Stations






























Interactive Weather Map
Tropical Storm Tracking
New forecast layout! Learn more

10-Day Weather Forecast

Advertisements
Track Severe Weather on mobile